sensor_id;sensor_type;location;lat;lon;timestamp;P1;durP1;ratioP1;P2;durP2;ratioP2
13171;SDS011;6651;53.200;10.432;2022-11-21T00:01:26;23.15;;;15.75;;
13171;SDS011;6651;53.200;10.432;2022-11-21T00:03:52;19.95;;;16.10;;
13171;SDS011;6651;53.200;10.432;2022-11-21T00:06:18;20.58;;;16.02;;
13171;SDS011;6651;53.200;10.432;2022-11-21T00:08:44;18.45;;;15.82;;
13171;SDS011;6651;53.200;10.432;2022-11-21T00:11:11;21.05;;;16.10;;
13171;SDS011;6651;53.200;10.432;2022-11-21T00:13:37;19.25;;;16.48;;
13171;SDS011;6651;53.200;10.432;2022-11-21T00:16:04;22.33;;;17.45;;
13171;SDS011;6651;53.200;10.432;2022-11-21T00:18:31;22.50;;;18.33;;
13171;SDS011;6651;53.200;10.432;2022-11-21T00:21:02;31.48;;;17.80;;
13171;SDS011;6651;53.200;10.432;2022-11-21T00:23:32;21.85;;;17.58;;
13171;SDS011;6651;53.200;10.432;2022-11-21T00:26:02;21.20;;;17.48;;
13171;SDS011;6651;53.200;10.432;2022-11-21T00:28:28;19.83;;;16.30;;
13171;SDS011;6651;53.200;10.432;2022-11-21T00:30:54;25.08;;;17.10;;
13171;SDS011;6651;53.200;10.432;2022-11-21T00:33:19;20.90;;;17.30;;
13171;SDS011;6651;53.200;10.432;2022-11-21T00:35:45;20.60;;;16.88;;
13171;SDS011;6651;53.200;10.432;2022-11-21T00:38:11;26.45;;;17.25;;
13171;SDS011;6651;53.200;10.432;2022-11-21T00:40:36;52.55;;;15.98;;
13171;SDS011;6651;53.200;10.432;2022-11-21T00:43:02;24.35;;;14.80;;
13171;SDS011;6651;53.200;10.432;2022-11-21T00:45:28;110.30;;;18.30;;
13171;SDS011;6651;53.200;10.432;2022-11-21T00:47:53;20.27;;;14.75;;
13171;SDS011;6651;53.200;10.432;2022-11-21T00:50:19;17.42;;;15.55;;
13171;SDS011;6651;53.200;10.432;2022-11-21T00:52:45;19.25;;;15.88;;
13171;SDS011;6651;53.200;10.432;2022-11-21T00:55:10;20.65;;;16.98;;
13171;SDS011;6651;53.200;10.432;2022-11-21T00:57:36;44.15;;;18.00;;
13171;SDS011;6651;53.200;10.432;2022-11-21T01:00:02;22.08;;;16.90;;
13171;SDS011;6651;53.200;10.432;2022-11-21T01:02:30;21.42;;;17.38;;
13171;SDS011;6651;53.200;10.432;2022-11-21T01:04:56;22.10;;;16.67;;
13171;SDS011;6651;53.200;10.432;2022-11-21T01:07:22;20.33;;;16.58;;
13171;SDS011;6651;53.200;10.432;2022-11-21T01:09:47;55.47;;;17.23;;
13171;SDS011;6651;53.200;10.432;2022-11-21T01:12:13;24.08;;;15.98;;
13171;SDS011;6651;53.200;10.432;2022-11-21T01:14:39;24.33;;;17.20;;
13171;SDS011;6651;53.200;10.432;2022-11-21T01:17:04;20.83;;;16.77;;
13171;SDS011;6651;53.200;10.432;2022-11-21T01:19:30;22.67;;;17.77;;
13171;SDS011;6651;53.200;10.432;2022-11-21T01:21:55;24.23;;;19.05;;
13171;SDS011;6651;53.200;10.432;2022-11-21T01:24:21;22.80;;;17.83;;
13171;SDS011;6651;53.200;10.432;2022-11-21T01:26:47;67.78;;;20.30;;
13171;SDS011;6651;53.200;10.432;2022-11-21T01:29:14;25.13;;;16.25;;
13171;SDS011;6651;53.200;10.432;2022-11-21T01:31:41;20.48;;;15.75;;
13171;SDS011;6651;53.200;10.432;2022-11-21T01:34:06;21.92;;;17.67;;
13171;SDS011;6651;53.200;10.432;2022-11-21T01:36:32;57.08;;;18.52;;
13171;SDS011;6651;53.200;10.432;2022-11-21T01:38:59;21.20;;;16.90;;
13171;SDS011;6651;53.200;10.432;2022-11-21T01:41:31;19.83;;;16.27;;
13171;SDS011;6651;53.200;10.432;2022-11-21T01:44:04;46.17;;;17.95;;
13171;SDS011;6651;53.200;10.432;2022-11-21T01:46:45;27.90;;;15.52;;
13171;SDS011;6651;53.200;10.432;2022-11-21T01:49:19;36.47;;;18.30;;
13171;SDS011;6651;53.200;10.432;2022-11-21T01:54:18;22.83;;;17.02;;
13171;SDS011;6651;53.200;10.432;2022-11-21T01:56:46;35.20;;;16.17;;
13171;SDS011;6651;53.200;10.432;2022-11-21T01:59:19;66.05;;;18.67;;
13171;SDS011;6651;53.200;10.432;2022-11-21T02:01:54;18.83;;;15.13;;
13171;SDS011;6651;53.200;10.432;2022-11-21T02:04:23;33.38;;;17.55;;
13171;SDS011;6651;53.200;10.432;2022-11-21T02:06:52;37.85;;;17.73;;
13171;SDS011;6651;53.200;10.432;2022-11-21T02:09:18;21.52;;;16.20;;
13171;SDS011;6651;53.200;10.432;2022-11-21T02:11:54;18.98;;;15.50;;
13171;SDS011;6651;53.200;10.432;2022-11-21T02:14:24;20.98;;;16.15;;
13171;SDS011;6651;53.200;10.432;2022-11-21T02:16:50;27.88;;;16.48;;
13171;SDS011;6651;53.200;10.432;2022-11-21T02:19:26;20.95;;;15.98;;
13171;SDS011;6651;53.200;10.432;2022-11-21T02:22:13;21.65;;;16.05;;
13171;SDS011;6651;53.200;10.432;2022-11-21T02:27:26;19.80;;;15.60;;
13171;SDS011;6651;53.200;10.432;2022-11-21T02:29:52;19.63;;;15.77;;
13171;SDS011;6651;53.200;10.432;2022-11-21T02:32:30;21.80;;;16.83;;
13171;SDS011;6651;53.200;10.432;2022-11-21T02:35:00;42.58;;;16.90;;
13171;SDS011;6651;53.200;10.432;2022-11-21T02:37:26;39.63;;;17.80;;
13171;SDS011;6651;53.200;10.432;2022-11-21T02:39:53;20.92;;;15.90;;
13171;SDS011;6651;53.200;10.432;2022-11-21T02:42:27;19.48;;;15.55;;
13171;SDS011;6651;53.200;10.432;2022-11-21T02:47:36;24.15;;;16.17;;
13171;SDS011;6651;53.200;10.432;2022-11-21T02:50:14;20.13;;;15.18;;
13171;SDS011;6651;53.200;10.432;2022-11-21T02:52:43;20.85;;;15.70;;
13171;SDS011;6651;53.200;10.432;2022-11-21T02:55:09;22.13;;;17.20;;
13171;SDS011;6651;53.200;10.432;2022-11-21T02:57:39;22.88;;;17.08;;
13171;SDS011;6651;53.200;10.432;2022-11-21T03:00:06;20.73;;;16.55;;
13171;SDS011;6651;53.200;10.432;2022-11-21T03:02:34;22.40;;;17.20;;
13171;SDS011;6651;53.200;10.432;2022-11-21T03:05:00;21.98;;;16.70;;
13171;SDS011;6651;53.200;10.432;2022-11-21T03:07:26;21.80;;;17.50;;
13171;SDS011;6651;53.200;10.432;2022-11-21T03:09:52;27.40;;;17.83;;
13171;SDS011;6651;53.200;10.432;2022-11-21T03:12:17;22.52;;;17.58;;
13171;SDS011;6651;53.200;10.432;2022-11-21T03:14:43;21.92;;;16.75;;
13171;SDS011;6651;53.200;10.432;2022-11-21T03:17:09;23.42;;;18.08;;
13171;SDS011;6651;53.200;10.432;2022-11-21T03:19:34;21.70;;;16.08;;
13171;SDS011;6651;53.200;10.432;2022-11-21T03:22:00;26.77;;;16.02;;
13171;SDS011;6651;53.200;10.432;2022-11-21T03:24:26;28.55;;;16.50;;
13171;SDS011;6651;53.200;10.432;2022-11-21T03:26:51;22.15;;;17.13;;
13171;SDS011;6651;53.200;10.432;2022-11-21T03:29:17;21.80;;;16.67;;
13171;SDS011;6651;53.200;10.432;2022-11-21T03:31:42;22.67;;;16.38;;
13171;SDS011;6651;53.200;10.432;2022-11-21T03:34:08;23.30;;;17.40;;
13171;SDS011;6651;53.200;10.432;2022-11-21T03:36:34;23.55;;;17.10;;
13171;SDS011;6651;53.200;10.432;2022-11-21T03:39:00;24.90;;;17.67;;
13171;SDS011;6651;53.200;10.432;2022-11-21T03:41:26;22.50;;;17.33;;
13171;SDS011;6651;53.200;10.432;2022-11-21T03:43:55;24.33;;;17.45;;
13171;SDS011;6651;53.200;10.432;2022-11-21T03:46:21;24.35;;;17.60;;
13171;SDS011;6651;53.200;10.432;2022-11-21T03:48:46;25.58;;;18.58;;
13171;SDS011;6651;53.200;10.432;2022-11-21T03:51:12;25.42;;;19.35;;
13171;SDS011;6651;53.200;10.432;2022-11-21T03:53:38;26.73;;;19.45;;
13171;SDS011;6651;53.200;10.432;2022-11-21T03:56:03;24.35;;;18.73;;
13171;SDS011;6651;53.200;10.432;2022-11-21T03:58:29;29.55;;;20.98;;
13171;SDS011;6651;53.200;10.432;2022-11-21T04:00:55;28.55;;;20.45;;
13171;SDS011;6651;53.200;10.432;2022-11-21T04:03:21;27.73;;;19.92;;
13171;SDS011;6651;53.200;10.432;2022-11-21T04:05:46;29.48;;;20.13;;
13171;SDS011;6651;53.200;10.432;2022-11-21T04:08:12;27.27;;;19.80;;
13171;SDS011;6651;53.200;10.432;2022-11-21T04:10:38;27.13;;;19.88;;
13171;SDS011;6651;53.200;10.432;2022-11-21T04:13:03;30.58;;;20.00;;
13171;SDS011;6651;53.200;10.432;2022-11-21T04:15:29;29.45;;;21.15;;
13171;SDS011;6651;53.200;10.432;2022-11-21T04:17:55;31.42;;;21.15;;
13171;SDS011;6651;53.200;10.432;2022-11-21T04:20:20;30.40;;;20.85;;
13171;SDS011;6651;53.200;10.432;2022-11-21T04:22:46;29.50;;;20.75;;
13171;SDS011;6651;53.200;10.432;2022-11-21T04:25:11;29.23;;;20.48;;
13171;SDS011;6651;53.200;10.432;2022-11-21T04:27:38;29.42;;;20.35;;
13171;SDS011;6651;53.200;10.432;2022-11-21T04:30:04;30.27;;;20.48;;
13171;SDS011;6651;53.200;10.432;2022-11-21T04:32:30;29.70;;;19.50;;
13171;SDS011;6651;53.200;10.432;2022-11-21T04:34:56;35.80;;;21.45;;
13171;SDS011;6651;53.200;10.432;2022-11-21T04:37:21;30.23;;;21.38;;
13171;SDS011;6651;53.200;10.432;2022-11-21T04:39:47;28.05;;;20.67;;
13171;SDS011;6651;53.200;10.432;2022-11-21T04:42:13;30.00;;;20.95;;
13171;SDS011;6651;53.200;10.432;2022-11-21T04:44:38;26.08;;;19.25;;
13171;SDS011;6651;53.200;10.432;2022-11-21T04:47:04;28.08;;;19.90;;
13171;SDS011;6651;53.200;10.432;2022-11-21T04:49:30;28.20;;;20.20;;
13171;SDS011;6651;53.200;10.432;2022-11-21T04:51:55;28.67;;;20.15;;
13171;SDS011;6651;53.200;10.432;2022-11-21T04:54:21;31.92;;;19.63;;
13171;SDS011;6651;53.200;10.432;2022-11-21T04:56:47;24.58;;;18.20;;
13171;SDS011;6651;53.200;10.432;2022-11-21T04:59:12;26.38;;;17.42;;
13171;SDS011;6651;53.200;10.432;2022-11-21T05:01:38;26.08;;;19.50;;
13171;SDS011;6651;53.200;10.432;2022-11-21T05:04:03;28.50;;;19.20;;
13171;SDS011;6651;53.200;10.432;2022-11-21T05:06:29;47.50;;;19.02;;
13171;SDS011;6651;53.200;10.432;2022-11-21T05:08:55;30.80;;;17.98;;
13171;SDS011;6651;53.200;10.432;2022-11-21T05:11:20;29.67;;;17.95;;
13171;SDS011;6651;53.200;10.432;2022-11-21T05:14:04;47.60;;;18.85;;
13171;SDS011;6651;53.200;10.432;2022-11-21T05:16:33;37.30;;;19.75;;
13171;SDS011;6651;53.200;10.432;2022-11-21T05:18:59;25.08;;;16.70;;
13171;SDS011;6651;53.200;10.432;2022-11-21T05:21:25;30.52;;;17.65;;
13171;SDS011;6651;53.200;10.432;2022-11-21T05:23:51;42.58;;;18.17;;
13171;SDS011;6651;53.200;10.432;2022-11-21T05:26:16;24.60;;;16.80;;
13171;SDS011;6651;53.200;10.432;2022-11-21T05:28:42;25.23;;;18.08;;
13171;SDS011;6651;53.200;10.432;2022-11-21T05:31:08;56.85;;;19.05;;
13171;SDS011;6651;53.200;10.432;2022-11-21T05:33:33;77.15;;;20.10;;
13171;SDS011;6651;53.200;10.432;2022-11-21T05:35:59;33.13;;;19.55;;
13171;SDS011;6651;53.200;10.432;2022-11-21T05:38:24;25.95;;;18.60;;
13171;SDS011;6651;53.200;10.432;2022-11-21T05:40:51;42.83;;;18.77;;
13171;SDS011;6651;53.200;10.432;2022-11-21T05:43:17;27.73;;;18.90;;
13171;SDS011;6651;53.200;10.432;2022-11-21T05:46:01;24.10;;;17.15;;
13171;SDS011;6651;53.200;10.432;2022-11-21T05:48:27;24.98;;;17.85;;
13171;SDS011;6651;53.200;10.432;2022-11-21T05:50:53;24.25;;;17.33;;
13171;SDS011;6651;53.200;10.432;2022-11-21T05:53:19;42.60;;;19.17;;
13171;SDS011;6651;53.200;10.432;2022-11-21T05:55:44;24.08;;;18.00;;
13171;SDS011;6651;53.200;10.432;2022-11-21T05:58:10;25.77;;;18.20;;
13171;SDS011;6651;53.200;10.432;2022-11-21T06:00:36;24.77;;;17.88;;
13171;SDS011;6651;53.200;10.432;2022-11-21T06:03:02;25.67;;;18.45;;
13171;SDS011;6651;53.200;10.432;2022-11-21T06:05:47;26.77;;;18.15;;
13171;SDS011;6651;53.200;10.432;2022-11-21T06:08:12;28.83;;;18.38;;
13171;SDS011;6651;53.200;10.432;2022-11-21T06:10:38;39.10;;;19.00;;
13171;SDS011;6651;53.200;10.432;2022-11-21T06:13:04;55.20;;;17.88;;
13171;SDS011;6651;53.200;10.432;2022-11-21T06:15:46;35.65;;;16.73;;
13171;SDS011;6651;53.200;10.432;2022-11-21T06:18:25;29.23;;;16.10;;
13171;SDS011;6651;53.200;10.432;2022-11-21T06:20:52;93.03;;;18.83;;
13171;SDS011;6651;53.200;10.432;2022-11-21T06:23:17;44.67;;;16.38;;
13171;SDS011;6651;53.200;10.432;2022-11-21T06:25:43;23.92;;;16.10;;
13171;SDS011;6651;53.200;10.432;2022-11-21T06:28:09;71.70;;;17.80;;
13171;SDS011;6651;53.200;10.432;2022-11-21T06:30:36;73.38;;;18.58;;
13171;SDS011;6651;53.200;10.432;2022-11-21T06:33:02;21.00;;;14.98;;
13171;SDS011;6651;53.200;10.432;2022-11-21T06:35:29;22.60;;;16.30;;
13171;SDS011;6651;53.200;10.432;2022-11-21T06:37:55;26.02;;;16.70;;
13171;SDS011;6651;53.200;10.432;2022-11-21T06:40:22;29.05;;;16.67;;
13171;SDS011;6651;53.200;10.432;2022-11-21T06:42:48;22.20;;;15.77;;
13171;SDS011;6651;53.200;10.432;2022-11-21T06:45:14;27.00;;;15.85;;
13171;SDS011;6651;53.200;10.432;2022-11-21T06:47:40;22.10;;;16.25;;
13171;SDS011;6651;53.200;10.432;2022-11-21T06:50:05;23.67;;;16.63;;
13171;SDS011;6651;53.200;10.432;2022-11-21T06:52:32;29.05;;;14.80;;
13171;SDS011;6651;53.200;10.432;2022-11-21T06:54:58;45.58;;;15.77;;
13171;SDS011;6651;53.200;10.432;2022-11-21T06:57:26;41.65;;;16.25;;
13171;SDS011;6651;53.200;10.432;2022-11-21T06:59:52;25.55;;;15.45;;
13171;SDS011;6651;53.200;10.432;2022-11-21T07:02:18;25.77;;;16.02;;
13171;SDS011;6651;53.200;10.432;2022-11-21T07:04:43;25.17;;;16.92;;
13171;SDS011;6651;53.200;10.432;2022-11-21T07:07:09;23.70;;;16.92;;
13171;SDS011;6651;53.200;10.432;2022-11-21T07:09:35;37.65;;;17.13;;
13171;SDS011;6651;53.200;10.432;2022-11-21T07:12:00;71.65;;;18.08;;
13171;SDS011;6651;53.200;10.432;2022-11-21T07:14:45;27.73;;;15.55;;
13171;SDS011;6651;53.200;10.432;2022-11-21T07:17:11;56.75;;;17.15;;
13171;SDS011;6651;53.200;10.432;2022-11-21T07:19:37;34.67;;;15.77;;
13171;SDS011;6651;53.200;10.432;2022-11-21T07:22:03;56.95;;;18.52;;
13171;SDS011;6651;53.200;10.432;2022-11-21T07:24:29;22.15;;;16.00;;
13171;SDS011;6651;53.200;10.432;2022-11-21T07:26:55;22.40;;;15.98;;
13171;SDS011;6651;53.200;10.432;2022-11-21T07:29:20;29.92;;;17.50;;
13171;SDS011;6651;53.200;10.432;2022-11-21T07:31:46;24.90;;;17.98;;
13171;SDS011;6651;53.200;10.432;2022-11-21T07:34:12;26.58;;;16.15;;
13171;SDS011;6651;53.200;10.432;2022-11-21T07:36:37;38.88;;;16.85;;
13171;SDS011;6651;53.200;10.432;2022-11-21T07:39:03;23.67;;;16.60;;
13171;SDS011;6651;53.200;10.432;2022-11-21T07:41:30;24.25;;;17.17;;
13171;SDS011;6651;53.200;10.432;2022-11-21T07:43:56;24.45;;;16.88;;
13171;SDS011;6651;53.200;10.432;2022-11-21T07:46:22;25.60;;;18.02;;
13171;SDS011;6651;53.200;10.432;2022-11-21T07:48:48;35.92;;;17.63;;
13171;SDS011;6651;53.200;10.432;2022-11-21T07:51:14;21.80;;;16.15;;
13171;SDS011;6651;53.200;10.432;2022-11-21T07:53:40;30.55;;;16.88;;
13171;SDS011;6651;53.200;10.432;2022-11-21T07:56:05;24.55;;;17.52;;
13171;SDS011;6651;53.200;10.432;2022-11-21T07:58:33;26.45;;;17.00;;
13171;SDS011;6651;53.200;10.432;2022-11-21T08:01:06;24.13;;;17.30;;
13171;SDS011;6651;53.200;10.432;2022-11-21T08:03:32;23.17;;;16.70;;
13171;SDS011;6651;53.200;10.432;2022-11-21T08:06:02;22.00;;;16.20;;
13171;SDS011;6651;53.200;10.432;2022-11-21T08:08:28;24.75;;;17.25;;
13171;SDS011;6651;53.200;10.432;2022-11-21T08:10:54;22.42;;;15.65;;
13171;SDS011;6651;53.200;10.432;2022-11-21T08:13:20;26.38;;;15.50;;
13171;SDS011;6651;53.200;10.432;2022-11-21T08:15:46;20.40;;;15.25;;
13171;SDS011;6651;53.200;10.432;2022-11-21T08:18:13;21.60;;;16.13;;
13171;SDS011;6651;53.200;10.432;2022-11-21T08:20:40;22.45;;;15.98;;
13171;SDS011;6651;53.200;10.432;2022-11-21T08:23:06;21.48;;;16.08;;
13171;SDS011;6651;53.200;10.432;2022-11-21T08:25:35;21.10;;;16.15;;
13171;SDS011;6651;53.200;10.432;2022-11-21T08:28:02;21.58;;;15.55;;
13171;SDS011;6651;53.200;10.432;2022-11-21T08:30:28;21.13;;;15.65;;
13171;SDS011;6651;53.200;10.432;2022-11-21T08:32:55;20.90;;;15.38;;
13171;SDS011;6651;53.200;10.432;2022-11-21T08:35:22;20.70;;;15.68;;
13171;SDS011;6651;53.200;10.432;2022-11-21T08:37:53;21.38;;;15.43;;
13171;SDS011;6651;53.200;10.432;2022-11-21T08:40:20;21.75;;;15.75;;
13171;SDS011;6651;53.200;10.432;2022-11-21T08:42:45;21.90;;;16.33;;
13171;SDS011;6651;53.200;10.432;2022-11-21T08:45:11;21.63;;;16.02;;
13171;SDS011;6651;53.200;10.432;2022-11-21T08:47:37;21.08;;;15.30;;
13171;SDS011;6651;53.200;10.432;2022-11-21T08:50:02;18.98;;;14.68;;
13171;SDS011;6651;53.200;10.432;2022-11-21T08:52:28;19.52;;;14.68;;
13171;SDS011;6651;53.200;10.432;2022-11-21T08:54:55;20.70;;;15.52;;
13171;SDS011;6651;53.200;10.432;2022-11-21T08:57:21;21.70;;;15.68;;
13171;SDS011;6651;53.200;10.432;2022-11-21T08:59:46;19.10;;;14.65;;
13171;SDS011;6651;53.200;10.432;2022-11-21T09:02:12;19.20;;;14.85;;
13171;SDS011;6651;53.200;10.432;2022-11-21T09:04:38;21.08;;;15.65;;
13171;SDS011;6651;53.200;10.432;2022-11-21T09:07:03;18.13;;;13.52;;
13171;SDS011;6651;53.200;10.432;2022-11-21T09:09:29;19.00;;;14.18;;
13171;SDS011;6651;53.200;10.432;2022-11-21T09:11:55;21.08;;;15.13;;
13171;SDS011;6651;53.200;10.432;2022-11-21T09:14:20;19.55;;;14.85;;
13171;SDS011;6651;53.200;10.432;2022-11-21T09:17:05;18.70;;;13.23;;
13171;SDS011;6651;53.200;10.432;2022-11-21T09:19:49;19.42;;;13.93;;
13171;SDS011;6651;53.200;10.432;2022-11-21T09:22:14;17.48;;;13.48;;
13171;SDS011;6651;53.200;10.432;2022-11-21T09:24:40;18.13;;;14.13;;
13171;SDS011;6651;53.200;10.432;2022-11-21T09:27:06;19.17;;;14.57;;
13171;SDS011;6651;53.200;10.432;2022-11-21T09:29:32;18.50;;;14.23;;
13171;SDS011;6651;53.200;10.432;2022-11-21T09:31:57;18.25;;;13.88;;
13171;SDS011;6651;53.200;10.432;2022-11-21T09:34:23;18.38;;;13.60;;
13171;SDS011;6651;53.200;10.432;2022-11-21T09:36:49;17.73;;;13.73;;
13171;SDS011;6651;53.200;10.432;2022-11-21T09:39:16;15.52;;;12.98;;
13171;SDS011;6651;53.200;10.432;2022-11-21T09:47:32;15.52;;;12.60;;
13171;SDS011;6651;53.200;10.432;2022-11-21T09:57:53;16.00;;;12.80;;
13171;SDS011;6651;53.200;10.432;2022-11-21T10:00:22;16.67;;;13.23;;
13171;SDS011;6651;53.200;10.432;2022-11-21T10:02:49;16.00;;;12.45;;
13171;SDS011;6651;53.200;10.432;2022-11-21T10:05:16;16.42;;;12.88;;
13171;SDS011;6651;53.200;10.432;2022-11-21T10:07:45;15.77;;;13.20;;
13171;SDS011;6651;53.200;10.432;2022-11-21T10:12:47;17.17;;;13.02;;
13171;SDS011;6651;53.200;10.432;2022-11-21T10:15:30;14.52;;;11.73;;
13171;SDS011;6651;53.200;10.432;2022-11-21T10:24:37;14.75;;;11.40;;
13171;SDS011;6651;53.200;10.432;2022-11-21T10:27:13;14.00;;;11.70;;
13171;SDS011;6651;53.200;10.432;2022-11-21T10:30:16;13.80;;;11.50;;
13171;SDS011;6651;53.200;10.432;2022-11-21T10:32:46;13.93;;;11.25;;
13171;SDS011;6651;53.200;10.432;2022-11-21T10:35:29;14.05;;;11.93;;
13171;SDS011;6651;53.200;10.432;2022-11-21T10:38:04;13.35;;;11.25;;
13171;SDS011;6651;53.200;10.432;2022-11-21T10:40:44;12.45;;;10.38;;
13171;SDS011;6651;53.200;10.432;2022-11-21T10:46:21;12.45;;;10.10;;
13171;SDS011;6651;53.200;10.432;2022-11-21T10:49:00;13.82;;;10.80;;
13171;SDS011;6651;53.200;10.432;2022-11-21T10:54:12;13.27;;;10.85;;
13171;SDS011;6651;53.200;10.432;2022-11-21T10:59:26;11.90;;;9.43;;
13171;SDS011;6651;53.200;10.432;2022-11-21T11:02:09;10.15;;;8.73;;
13171;SDS011;6651;53.200;10.432;2022-11-21T11:04:39;10.77;;;8.75;;
13171;SDS011;6651;53.200;10.432;2022-11-21T11:07:24;11.07;;;9.05;;
13171;SDS011;6651;53.200;10.432;2022-11-21T11:09:51;12.90;;;9.98;;
13171;SDS011;6651;53.200;10.432;2022-11-21T11:12:37;11.02;;;9.15;;
13171;SDS011;6651;53.200;10.432;2022-11-21T11:15:23;10.98;;;9.10;;
13171;SDS011;6651;53.200;10.432;2022-11-21T11:17:54;11.60;;;9.25;;
13171;SDS011;6651;53.200;10.432;2022-11-21T11:20:30;10.75;;;8.98;;
13171;SDS011;6651;53.200;10.432;2022-11-21T11:25:51;11.23;;;8.82;;
13171;SDS011;6651;53.200;10.432;2022-11-21T11:28:21;11.15;;;9.02;;
13171;SDS011;6651;53.200;10.432;2022-11-21T11:30:52;10.95;;;9.00;;
13171;SDS011;6651;53.200;10.432;2022-11-21T11:33:33;11.93;;;9.50;;
13171;SDS011;6651;53.200;10.432;2022-11-21T11:36:12;11.07;;;9.25;;
13171;SDS011;6651;53.200;10.432;2022-11-21T11:38:41;9.40;;;7.95;;
13171;SDS011;6651;53.200;10.432;2022-11-21T11:41:25;10.98;;;8.95;;
13171;SDS011;6651;53.200;10.432;2022-11-21T11:44:33;10.68;;;7.97;;
13171;SDS011;6651;53.200;10.432;2022-11-21T11:47:29;11.30;;;8.65;;
13171;SDS011;6651;53.200;10.432;2022-11-21T11:50:18;12.32;;;9.38;;
13171;SDS011;6651;53.200;10.432;2022-11-21T11:55:30;8.32;;;6.45;;
13171;SDS011;6651;53.200;10.432;2022-11-21T12:00:51;8.95;;;6.53;;
13171;SDS011;6651;53.200;10.432;2022-11-21T12:06:28;7.75;;;6.07;;
13171;SDS011;6651;53.200;10.432;2022-11-21T12:09:00;10.00;;;6.03;;
13171;SDS011;6651;53.200;10.432;2022-11-21T12:11:48;7.78;;;6.18;;
13171;SDS011;6651;53.200;10.432;2022-11-21T12:17:29;8.13;;;6.43;;
13171;SDS011;6651;53.200;10.432;2022-11-21T12:20:11;7.45;;;5.80;;
13171;SDS011;6651;53.200;10.432;2022-11-21T12:22:50;7.15;;;5.95;;
13171;SDS011;6651;53.200;10.432;2022-11-21T12:25:18;7.50;;;5.75;;
13171;SDS011;6651;53.200;10.432;2022-11-21T12:27:50;8.02;;;6.13;;
13171;SDS011;6651;53.200;10.432;2022-11-21T12:33:21;8.90;;;6.18;;
13171;SDS011;6651;53.200;10.432;2022-11-21T12:38:55;6.53;;;5.13;;
13171;SDS011;6651;53.200;10.432;2022-11-21T12:44:52;7.30;;;5.40;;
13171;SDS011;6651;53.200;10.432;2022-11-21T12:59:41;9.23;;;5.60;;
13171;SDS011;6651;53.200;10.432;2022-11-21T13:02:45;7.03;;;5.13;;
13171;SDS011;6651;53.200;10.432;2022-11-21T13:05:17;7.13;;;5.32;;
13171;SDS011;6651;53.200;10.432;2022-11-21T13:08:00;5.38;;;4.18;;
13171;SDS011;6651;53.200;10.432;2022-11-21T13:10:33;6.18;;;4.43;;
13171;SDS011;6651;53.200;10.432;2022-11-21T13:13:09;5.82;;;4.15;;
13171;SDS011;6651;53.200;10.432;2022-11-21T13:18:32;4.88;;;3.90;;
13171;SDS011;6651;53.200;10.432;2022-11-21T13:21:07;5.28;;;4.45;;
13171;SDS011;6651;53.200;10.432;2022-11-21T13:24:29;6.32;;;4.68;;
13171;SDS011;6651;53.200;10.432;2022-11-21T13:27:55;6.55;;;4.88;;
13171;SDS011;6651;53.200;10.432;2022-11-21T13:32:45;6.43;;;4.82;;
13171;SDS011;6651;53.200;10.432;2022-11-21T13:48:16;8.10;;;5.88;;
13171;SDS011;6651;53.200;10.432;2022-11-21T13:56:35;8.75;;;6.45;;
13171;SDS011;6651;53.200;10.432;2022-11-21T14:07:42;8.48;;;6.15;;
13171;SDS011;6651;53.200;10.432;2022-11-21T14:10:26;9.82;;;6.78;;
13171;SDS011;6651;53.200;10.432;2022-11-21T14:12:57;8.07;;;6.20;;
13171;SDS011;6651;53.200;10.432;2022-11-21T14:18:27;7.70;;;5.75;;
13171;SDS011;6651;53.200;10.432;2022-11-21T14:20:56;6.78;;;5.50;;
13171;SDS011;6651;53.200;10.432;2022-11-21T14:23:24;7.22;;;5.88;;
13171;SDS011;6651;53.200;10.432;2022-11-21T14:25:53;7.82;;;5.65;;
13171;SDS011;6651;53.200;10.432;2022-11-21T14:28:41;6.95;;;5.57;;
13171;SDS011;6651;53.200;10.432;2022-11-21T14:31:08;7.25;;;5.32;;
13171;SDS011;6651;53.200;10.432;2022-11-21T14:33:37;7.75;;;5.30;;
13171;SDS011;6651;53.200;10.432;2022-11-21T14:36:07;8.10;;;5.60;;
13171;SDS011;6651;53.200;10.432;2022-11-21T14:38:35;6.63;;;5.30;;
13171;SDS011;6651;53.200;10.432;2022-11-21T14:41:25;7.50;;;5.50;;
13171;SDS011;6651;53.200;10.432;2022-11-21T14:46:26;6.43;;;5.00;;
13171;SDS011;6651;53.200;10.432;2022-11-21T14:48:53;6.40;;;5.00;;
13171;SDS011;6651;53.200;10.432;2022-11-21T14:51:21;7.32;;;5.03;;
13171;SDS011;6651;53.200;10.432;2022-11-21T14:53:50;7.75;;;5.85;;
13171;SDS011;6651;53.200;10.432;2022-11-21T14:58:49;7.75;;;6.00;;
13171;SDS011;6651;53.200;10.432;2022-11-21T15:01:22;7.90;;;5.38;;
13171;SDS011;6651;53.200;10.432;2022-11-21T15:03:55;6.65;;;5.13;;
13171;SDS011;6651;53.200;10.432;2022-11-21T15:06:22;7.28;;;5.53;;
13171;SDS011;6651;53.200;10.432;2022-11-21T15:08:48;7.80;;;5.50;;
13171;SDS011;6651;53.200;10.432;2022-11-21T15:11:15;7.70;;;5.75;;
13171;SDS011;6651;53.200;10.432;2022-11-21T15:13:42;7.45;;;6.10;;
13171;SDS011;6651;53.200;10.432;2022-11-21T15:16:12;7.90;;;6.50;;
13171;SDS011;6651;53.200;10.432;2022-11-21T15:18:39;9.43;;;6.88;;
13171;SDS011;6651;53.200;10.432;2022-11-21T15:21:06;9.07;;;6.47;;
13171;SDS011;6651;53.200;10.432;2022-11-21T15:23:33;9.27;;;6.97;;
13171;SDS011;6651;53.200;10.432;2022-11-21T15:26:00;10.07;;;7.85;;
13171;SDS011;6651;53.200;10.432;2022-11-21T15:28:27;9.70;;;7.53;;
13171;SDS011;6651;53.200;10.432;2022-11-21T15:36:29;11.38;;;8.82;;
13171;SDS011;6651;53.200;10.432;2022-11-21T15:39:00;11.20;;;8.77;;
13171;SDS011;6651;53.200;10.432;2022-11-21T15:44:13;14.75;;;11.25;;
13171;SDS011;6651;53.200;10.432;2022-11-21T15:46:45;15.02;;;11.98;;
13171;SDS011;6651;53.200;10.432;2022-11-21T15:49:11;17.85;;;13.13;;
13171;SDS011;6651;53.200;10.432;2022-11-21T15:51:39;18.33;;;14.43;;
13171;SDS011;6651;53.200;10.432;2022-11-21T15:54:11;18.90;;;14.38;;
13171;SDS011;6651;53.200;10.432;2022-11-21T15:56:43;19.52;;;14.82;;
13171;SDS011;6651;53.200;10.432;2022-11-21T15:59:11;20.05;;;14.93;;
13171;SDS011;6651;53.200;10.432;2022-11-21T16:01:37;19.80;;;15.07;;
13171;SDS011;6651;53.200;10.432;2022-11-21T16:04:04;22.08;;;16.15;;
13171;SDS011;6651;53.200;10.432;2022-11-21T16:06:31;23.40;;;17.70;;
13171;SDS011;6651;53.200;10.432;2022-11-21T16:08:58;22.95;;;16.75;;
13171;SDS011;6651;53.200;10.432;2022-11-21T16:13:52;23.05;;;18.25;;
13171;SDS011;6651;53.200;10.432;2022-11-21T16:16:33;25.73;;;19.40;;
13171;SDS011;6651;53.200;10.432;2022-11-21T16:19:02;25.23;;;18.77;;
13171;SDS011;6651;53.200;10.432;2022-11-21T16:21:28;25.60;;;19.48;;
13171;SDS011;6651;53.200;10.432;2022-11-21T16:23:54;25.85;;;19.95;;
13171;SDS011;6651;53.200;10.432;2022-11-21T16:26:20;26.02;;;18.65;;
13171;SDS011;6651;53.200;10.432;2022-11-21T16:28:52;25.70;;;19.40;;
13171;SDS011;6651;53.200;10.432;2022-11-21T16:31:22;26.23;;;18.90;;
13171;SDS011;6651;53.200;10.432;2022-11-21T16:33:49;27.05;;;19.70;;
13171;SDS011;6651;53.200;10.432;2022-11-21T16:36:19;27.73;;;19.25;;
13171;SDS011;6651;53.200;10.432;2022-11-21T16:38:46;26.85;;;19.63;;
13171;SDS011;6651;53.200;10.432;2022-11-21T16:41:11;27.70;;;20.08;;
13171;SDS011;6651;53.200;10.432;2022-11-21T16:43:39;36.95;;;24.58;;
13171;SDS011;6651;53.200;10.432;2022-11-21T16:46:11;45.22;;;28.95;;